Boody, Illinois
Current Conditions -  °F | °C
As of 11:54 AM on Thursday 29 Jan 2015 (Local Time) from KDEC Reporting Station
Overcast Overcast  
Wind Chill: 27°   Ceiling: 1700
Heat Index: 37°   Visibility: 7mi
Dew Point: 30°   Wind: 18mph
Humidity: 76%   Direction: 310°NW
Pressure: 30.04"   Gusts: 30mph
Location:  39.77°N, 89.05°W
Report Text: KDEC 291754Z 31016G26KT 7SM OVC017 03/M01 A3004 RMK AO2 PK WND 30027/1658 SLP178 T00281011 10061 20022 51030
Loading
Personal Weather Stations






























Interactive Weather Map New forecast layout! Learn more

10-Day Weather Forecast

Advertisements
Track Severe Weather on mobile